Weatherford, Texas
Current Conditions -  °F | °C
As of 7:53 PM on Friday 28 Nov 2014 (Local Time) from KMWL Reporting Station
Clear Clear  
Wind Chill: 15°   Ceiling: Unl
Heat Index: 15°   Visibility: 10mi
Dew Point:   Wind: 10mph
Humidity: 62%   Direction: 160°SSE
Pressure: 29.99"   Gusts: NA
Location:  32.76°N, 97.8°W
Report Text: KMWL 290153Z AUTO 16009KT 10SM CLR 15/08 A2999 RMK AO2 SLP154 T01500078
Loading
Personal Weather Stations






























Interactive Weather Map New forecast layout! Learn more

10-Day Weather Forecast

Advertisements
Track Severe Weather on mobile